Terminal Aerodrome Forecast
Issued by NWS

Home | Current Version | Previous Version | Text Only | Print | Product List | Glossary On
Versions: 1 2 3 4 5 6 7 8 9 10 11 12 13 14 15 16 17 18 19 20 21 22
589
FTUS44 KMAF 260701 AAA
TAFPEQ
TAF AMD
KPEQ 260701Z 2607/2706 26015KT P6SM SCT010 SCT250
     FM260900 18010KT P6SM SCT250
     FM261700 25015G25KT P6SM SCT100 SCT250=

USA.gov is the U.S. government's official web portal to all federal, state and local government web resources and services.